Ardenvoir, WA

3:33 AM PDT on September 18, 2014 (GMT -0700)
Stampede Pass | Change Station
CLOSE
Current Station
Airport
Location: Stampede Pass,
Elevation: 3967 ft
Nearby Weather Stations

Elev 3967 ft 47.28 °N, 121.34 °W | Updated 1 hour ago

Mostly Cloudy
Mostly Cloudy
51 °F
Feels Like 51 °F
N
5
Wind Variable Wind from Variable

Today
High -- | Low -- °F
--% Chance of Precip.
Yesterday
High -- | Low -- °F
Precip. -- in
6:42 AM 7:07 PM
Waning Crescent, 28% visible
Pressure 29.82 in
Visibility 0.2 miles
Clouds Mostly Cloudy 200 ft
Mostly Cloudy 11000 ft
Dew Point 50 °F
Humidity 96%
Rainfall 0.00 in
Snow Depth 0 in , 0 in , 0 in
UV 0 out of 12
Pollen 2.80 out of 12
Air Quality Not available.
Flu Activity Not available.
SPECI KSMP 180904Z AUTO VRB04KT 1/4SM FG BKN002 BKN110 11/10 A2982 RMK AO2 T01060100 $

More Conditions Fewer Conditions

Pressure 29.82 in
Visibility 0.2 miles
Clouds Mostly Cloudy 200 ft
Mostly Cloudy 11000 ft
Dew Point 50 °F
Humidity 96%
Rainfall 0.00 in
Snow Depth 0 in , 0 in , 0 in
UV 0 out of 12
Pollen 2.80 out of 12
Air Quality Not available.
Flu Activity Not available.
SPECI KSMP 180904Z AUTO VRB04KT 1/4SM FG BKN002 BKN110 11/10 A2982 RMK AO2 T01060100 $

More Conditions Fewer Conditions

10-Day Weather Forecast

Almanac

Astronomy

Sep. 18, 2014 Rise Set
Actual Time 6:42 AM PDT 7:07 PM PDT
Civil Twilight 6:12 AM PDT 7:38 PM PDT
Nautical Twilight 5:35 AM PDT 8:14 PM PDT
Astronomical Twilight 4:57 AM PDT 8:52 PM PDT
Moon 1:22 AM PDT 4:17 PM PDT
Length of Visible Light 13h 26m
Length of Day
12h 24m
Tomorrow will be 3m 25s shorter.
Waning Crescent, 28% of the Moon is Illuminated
Today
Waning Crescent
Sep 24
New
Oct 1
First Quarter
Oct 8
Full
Oct 15
Last Quarter

Today's Extremes

State Highs State Lows

Community

WunderPhotos

Upload Photos

1,754,314 photos uploaded!

Nearby

Snow Depth

Station Depth Elevation
White Pass E.S. 0 in 4500 ft
Mount Gardner 0 in 3000 ft
Alpine Meadows 0 in 3500 ft
Pigtail Peak 0 in 5900 ft
Moses Mountain 1 in 5300 ft

Earthquake Activity

City Distance Mag. Time & Date
Morton, Washington 135 miles 3.0 5:43 AM PDT
2014-09-16
Minimum magnitude displayed is 2.5.

Coastal Water Temperatures

Place Temperature
No Stations Reporting

Nearby Weather Stations